sensor_id;sensor_type;location;lat;lon;timestamp;temperature;humidity
64620;DHT22;51029;51.058;13.826;2022-12-29T00:01:53;8.60;99.90
64620;DHT22;51029;51.058;13.826;2022-12-29T00:04:19;8.60;99.90
64620;DHT22;51029;51.058;13.826;2022-12-29T00:06:45;8.70;99.90
64620;DHT22;51029;51.058;13.826;2022-12-29T00:09:11;8.70;99.90
64620;DHT22;51029;51.058;13.826;2022-12-29T00:11:37;8.80;99.90
64620;DHT22;51029;51.058;13.826;2022-12-29T00:14:03;8.90;99.90
64620;DHT22;51029;51.058;13.826;2022-12-29T00:16:47;8.90;99.90
64620;DHT22;51029;51.058;13.826;2022-12-29T00:19:12;8.90;99.90
64620;DHT22;51029;51.058;13.826;2022-12-29T00:21:58;9.00;99.90
64620;DHT22;51029;51.058;13.826;2022-12-29T00:24:43;9.00;99.90
64620;DHT22;51029;51.058;13.826;2022-12-29T00:27:18;9.00;99.90
64620;DHT22;51029;51.058;13.826;2022-12-29T00:30:08;9.00;99.90
64620;DHT22;51029;51.058;13.826;2022-12-29T00:32:53;9.00;99.90
64620;DHT22;51029;51.058;13.826;2022-12-29T00:35:46;9.00;99.90
64620;DHT22;51029;51.058;13.826;2022-12-29T00:38:14;9.00;99.90
64620;DHT22;51029;51.058;13.826;2022-12-29T00:40:58;9.10;99.90
64620;DHT22;51029;51.058;13.826;2022-12-29T00:43:42;9.10;99.90
64620;DHT22;51029;51.058;13.826;2022-12-29T00:46:26;9.20;99.90
64620;DHT22;51029;51.058;13.826;2022-12-29T00:48:52;9.40;99.90
64620;DHT22;51029;51.058;13.826;2022-12-29T00:51:36;9.50;99.90
64620;DHT22;51029;51.058;13.826;2022-12-29T00:54:01;9.40;99.90
64620;DHT22;51029;51.058;13.826;2022-12-29T00:56:27;9.40;99.90
64620;DHT22;51029;51.058;13.826;2022-12-29T00:58:52;9.50;99.90
64620;DHT22;51029;51.058;13.826;2022-12-29T01:01:18;9.60;99.90
64620;DHT22;51029;51.058;13.826;2022-12-29T01:03:43;9.70;99.90
64620;DHT22;51029;51.058;13.826;2022-12-29T01:06:10;9.60;99.90
64620;DHT22;51029;51.058;13.826;2022-12-29T01:08:36;9.70;99.90
64620;DHT22;51029;51.058;13.826;2022-12-29T01:11:10;9.70;99.90
64620;DHT22;51029;51.058;13.826;2022-12-29T01:13:36;9.60;99.90
64620;DHT22;51029;51.058;13.826;2022-12-29T01:16:04;9.60;99.90
64620;DHT22;51029;51.058;13.826;2022-12-29T01:18:29;9.60;99.90
64620;DHT22;51029;51.058;13.826;2022-12-29T01:21:03;9.50;99.90
64620;DHT22;51029;51.058;13.826;2022-12-29T01:23:30;9.50;99.90
64620;DHT22;51029;51.058;13.826;2022-12-29T01:25:56;9.40;99.90
64620;DHT22;51029;51.058;13.826;2022-12-29T01:28:22;9.40;99.90
64620;DHT22;51029;51.058;13.826;2022-12-29T01:30:47;9.30;99.90
64620;DHT22;51029;51.058;13.826;2022-12-29T01:33:13;9.30;99.90
64620;DHT22;51029;51.058;13.826;2022-12-29T01:35:39;9.20;99.90
64620;DHT22;51029;51.058;13.826;2022-12-29T01:38:05;9.20;99.90
64620;DHT22;51029;51.058;13.826;2022-12-29T01:40:30;9.20;99.90
64620;DHT22;51029;51.058;13.826;2022-12-29T01:42:55;9.10;99.90
64620;DHT22;51029;51.058;13.826;2022-12-29T01:45:21;9.10;99.90
64620;DHT22;51029;51.058;13.826;2022-12-29T01:48:00;9.00;99.90
64620;DHT22;51029;51.058;13.826;2022-12-29T01:50:37;9.10;99.90
64620;DHT22;51029;51.058;13.826;2022-12-29T01:53:09;9.10;99.90
64620;DHT22;51029;51.058;13.826;2022-12-29T01:55:44;9.10;99.90
64620;DHT22;51029;51.058;13.826;2022-12-29T01:58:11;9.10;99.90
64620;DHT22;51029;51.058;13.826;2022-12-29T02:00:37;9.20;99.90
64620;DHT22;51029;51.058;13.826;2022-12-29T02:03:03;9.10;99.90
64620;DHT22;51029;51.058;13.826;2022-12-29T02:05:45;9.20;99.90
64620;DHT22;51029;51.058;13.826;2022-12-29T02:08:13;9.20;99.90
64620;DHT22;51029;51.058;13.826;2022-12-29T02:10:39;9.30;99.90
64620;DHT22;51029;51.058;13.826;2022-12-29T02:13:05;9.30;99.90
64620;DHT22;51029;51.058;13.826;2022-12-29T02:21:23;9.30;99.90
64620;DHT22;51029;51.058;13.826;2022-12-29T02:32:30;9.20;99.90
64620;DHT22;51029;51.058;13.826;2022-12-29T02:37:56;9.30;99.90
64620;DHT22;51029;51.058;13.826;2022-12-29T02:40:33;9.40;99.90
64620;DHT22;51029;51.058;13.826;2022-12-29T02:43:39;9.40;99.90
64620;DHT22;51029;51.058;13.826;2022-12-29T02:46:33;9.40;99.90
64620;DHT22;51029;51.058;13.826;2022-12-29T02:49:18;9.40;99.90
64620;DHT22;51029;51.058;13.826;2022-12-29T02:54:25;9.30;99.90
64620;DHT22;51029;51.058;13.826;2022-12-29T03:02:50;9.50;99.90
64620;DHT22;51029;51.058;13.826;2022-12-29T03:11:12;9.50;99.90
64620;DHT22;51029;51.058;13.826;2022-12-29T03:14:05;9.40;99.90
64620;DHT22;51029;51.058;13.826;2022-12-29T03:16:57;9.40;99.90
64620;DHT22;51029;51.058;13.826;2022-12-29T03:19:37;9.40;99.90
64620;DHT22;51029;51.058;13.826;2022-12-29T03:22:10;9.30;99.90
64620;DHT22;51029;51.058;13.826;2022-12-29T03:27:42;9.50;99.90
64620;DHT22;51029;51.058;13.826;2022-12-29T03:30:10;9.60;99.90
64620;DHT22;51029;51.058;13.826;2022-12-29T03:32:42;9.60;99.90
64620;DHT22;51029;51.058;13.826;2022-12-29T03:35:09;9.70;99.90
64620;DHT22;51029;51.058;13.826;2022-12-29T03:37:41;9.70;99.90
64620;DHT22;51029;51.058;13.826;2022-12-29T03:40:08;9.80;99.90
64620;DHT22;51029;51.058;13.826;2022-12-29T03:42:35;9.90;99.90
64620;DHT22;51029;51.058;13.826;2022-12-29T03:45:01;9.80;99.90
64620;DHT22;51029;51.058;13.826;2022-12-29T03:47:29;9.90;99.90
64620;DHT22;51029;51.058;13.826;2022-12-29T03:49:54;9.80;99.90
64620;DHT22;51029;51.058;13.826;2022-12-29T03:52:20;9.80;99.90
64620;DHT22;51029;51.058;13.826;2022-12-29T03:54:45;10.00;99.90
64620;DHT22;51029;51.058;13.826;2022-12-29T03:57:11;10.00;99.90
64620;DHT22;51029;51.058;13.826;2022-12-29T03:59:37;10.00;99.90
64620;DHT22;51029;51.058;13.826;2022-12-29T04:02:02;10.10;99.90
64620;DHT22;51029;51.058;13.826;2022-12-29T04:04:28;10.10;99.90
64620;DHT22;51029;51.058;13.826;2022-12-29T04:06:53;10.20;99.90
64620;DHT22;51029;51.058;13.826;2022-12-29T04:09:19;10.30;99.90
64620;DHT22;51029;51.058;13.826;2022-12-29T04:11:44;10.30;99.90
64620;DHT22;51029;51.058;13.826;2022-12-29T04:14:10;10.50;99.90
64620;DHT22;51029;51.058;13.826;2022-12-29T04:16:36;10.50;99.90
64620;DHT22;51029;51.058;13.826;2022-12-29T04:19:04;10.40;99.90
64620;DHT22;51029;51.058;13.826;2022-12-29T04:21:30;10.50;99.90
64620;DHT22;51029;51.058;13.826;2022-12-29T04:23:55;10.40;99.90
64620;DHT22;51029;51.058;13.826;2022-12-29T04:26:21;10.40;99.90
64620;DHT22;51029;51.058;13.826;2022-12-29T04:28:46;10.40;99.90
64620;DHT22;51029;51.058;13.826;2022-12-29T04:31:12;10.40;99.90
64620;DHT22;51029;51.058;13.826;2022-12-29T04:33:37;10.40;99.90
64620;DHT22;51029;51.058;13.826;2022-12-29T04:36:03;10.30;99.90
64620;DHT22;51029;51.058;13.826;2022-12-29T04:38:29;10.30;99.90
64620;DHT22;51029;51.058;13.826;2022-12-29T04:40:54;10.20;99.90
64620;DHT22;51029;51.058;13.826;2022-12-29T04:43:20;10.30;99.90
64620;DHT22;51029;51.058;13.826;2022-12-29T04:45:47;10.50;99.90
64620;DHT22;51029;51.058;13.826;2022-12-29T04:48:13;10.50;99.90
64620;DHT22;51029;51.058;13.826;2022-12-29T04:50:39;10.50;99.90
64620;DHT22;51029;51.058;13.826;2022-12-29T04:53:05;10.40;99.90
64620;DHT22;51029;51.058;13.826;2022-12-29T04:55:31;10.40;99.90
64620;DHT22;51029;51.058;13.826;2022-12-29T04:57:56;10.40;99.90
64620;DHT22;51029;51.058;13.826;2022-12-29T05:00:22;10.30;99.90
64620;DHT22;51029;51.058;13.826;2022-12-29T05:02:47;10.30;99.90
64620;DHT22;51029;51.058;13.826;2022-12-29T05:05:13;10.30;99.90
64620;DHT22;51029;51.058;13.826;2022-12-29T05:07:38;10.40;99.90
64620;DHT22;51029;51.058;13.826;2022-12-29T05:10:05;10.30;99.90
64620;DHT22;51029;51.058;13.826;2022-12-29T05:12:31;10.40;99.90
64620;DHT22;51029;51.058;13.826;2022-12-29T05:14:57;10.40;99.90
64620;DHT22;51029;51.058;13.826;2022-12-29T05:17:23;10.50;99.90
64620;DHT22;51029;51.058;13.826;2022-12-29T05:19:48;10.50;99.90
64620;DHT22;51029;51.058;13.826;2022-12-29T05:22:14;10.40;99.90
64620;DHT22;51029;51.058;13.826;2022-12-29T05:24:39;10.40;99.90
64620;DHT22;51029;51.058;13.826;2022-12-29T05:27:05;10.40;99.90
64620;DHT22;51029;51.058;13.826;2022-12-29T05:29:31;10.30;99.90
64620;DHT22;51029;51.058;13.826;2022-12-29T05:31:56;10.30;99.90
64620;DHT22;51029;51.058;13.826;2022-12-29T05:34:22;10.20;99.90
64620;DHT22;51029;51.058;13.826;2022-12-29T05:36:47;10.20;99.90
64620;DHT22;51029;51.058;13.826;2022-12-29T05:39:13;10.10;99.90
64620;DHT22;51029;51.058;13.826;2022-12-29T05:41:38;10.30;99.90
64620;DHT22;51029;51.058;13.826;2022-12-29T05:44:04;10.30;99.90
64620;DHT22;51029;51.058;13.826;2022-12-29T05:46:29;10.30;99.90
64620;DHT22;51029;51.058;13.826;2022-12-29T05:48:55;10.20;99.90
64620;DHT22;51029;51.058;13.826;2022-12-29T05:51:20;10.30;99.90
64620;DHT22;51029;51.058;13.826;2022-12-29T05:53:46;10.30;99.90
64620;DHT22;51029;51.058;13.826;2022-12-29T05:56:11;10.20;99.90
64620;DHT22;51029;51.058;13.826;2022-12-29T05:58:37;10.20;99.90
64620;DHT22;51029;51.058;13.826;2022-12-29T06:01:02;10.20;99.90
64620;DHT22;51029;51.058;13.826;2022-12-29T06:03:28;10.10;99.90
64620;DHT22;51029;51.058;13.826;2022-12-29T06:05:53;10.10;99.90
64620;DHT22;51029;51.058;13.826;2022-12-29T06:08:19;10.10;99.90
64620;DHT22;51029;51.058;13.826;2022-12-29T06:10:44;10.00;99.90
64620;DHT22;51029;51.058;13.826;2022-12-29T06:13:10;10.10;99.90
64620;DHT22;51029;51.058;13.826;2022-12-29T06:15:35;10.10;99.90
64620;DHT22;51029;51.058;13.826;2022-12-29T06:18:01;10.10;99.90
64620;DHT22;51029;51.058;13.826;2022-12-29T06:20:27;10.10;99.90
64620;DHT22;51029;51.058;13.826;2022-12-29T06:22:53;10.20;99.90
64620;DHT22;51029;51.058;13.826;2022-12-29T06:25:18;10.10;99.90
64620;DHT22;51029;51.058;13.826;2022-12-29T06:27:44;10.20;99.90
64620;DHT22;51029;51.058;13.826;2022-12-29T06:30:10;10.20;99.90
64620;DHT22;51029;51.058;13.826;2022-12-29T06:32:36;10.20;99.90
64620;DHT22;51029;51.058;13.826;2022-12-29T06:35:03;10.20;99.90
64620;DHT22;51029;51.058;13.826;2022-12-29T06:37:28;10.30;99.90
64620;DHT22;51029;51.058;13.826;2022-12-29T06:39:54;10.20;99.90
64620;DHT22;51029;51.058;13.826;2022-12-29T06:42:19;10.20;99.90
64620;DHT22;51029;51.058;13.826;2022-12-29T06:44:45;10.10;99.90
64620;DHT22;51029;51.058;13.826;2022-12-29T06:47:10;10.10;99.90
64620;DHT22;51029;51.058;13.826;2022-12-29T06:49:36;9.90;99.90
64620;DHT22;51029;51.058;13.826;2022-12-29T06:52:02;9.90;99.90
64620;DHT22;51029;51.058;13.826;2022-12-29T06:54:29;9.80;99.90
64620;DHT22;51029;51.058;13.826;2022-12-29T06:56:55;9.80;99.90
64620;DHT22;51029;51.058;13.826;2022-12-29T06:59:21;9.90;99.90
64620;DHT22;51029;51.058;13.826;2022-12-29T07:01:46;9.90;99.90
64620;DHT22;51029;51.058;13.826;2022-12-29T07:04:11;9.80;99.90
64620;DHT22;51029;51.058;13.826;2022-12-29T07:06:37;9.70;99.90
64620;DHT22;51029;51.058;13.826;2022-12-29T07:09:03;9.70;99.90
64620;DHT22;51029;51.058;13.826;2022-12-29T07:11:28;9.70;99.90
64620;DHT22;51029;51.058;13.826;2022-12-29T07:13:54;9.60;99.90
64620;DHT22;51029;51.058;13.826;2022-12-29T07:16:19;9.50;99.90
64620;DHT22;51029;51.058;13.826;2022-12-29T07:18:45;9.60;99.90
64620;DHT22;51029;51.058;13.826;2022-12-29T07:21:11;9.50;99.90
64620;DHT22;51029;51.058;13.826;2022-12-29T07:23:37;9.30;99.90
64620;DHT22;51029;51.058;13.826;2022-12-29T07:26:07;9.20;99.90
64620;DHT22;51029;51.058;13.826;2022-12-29T07:28:35;9.10;99.90
64620;DHT22;51029;51.058;13.826;2022-12-29T07:31:01;9.00;99.90
64620;DHT22;51029;51.058;13.826;2022-12-29T07:33:30;8.90;99.90
64620;DHT22;51029;51.058;13.826;2022-12-29T07:35:57;8.90;99.90
64620;DHT22;51029;51.058;13.826;2022-12-29T07:38:23;8.90;99.90
64620;DHT22;51029;51.058;13.826;2022-12-29T07:40:48;9.00;99.90
64620;DHT22;51029;51.058;13.826;2022-12-29T07:43:14;9.20;99.90
64620;DHT22;51029;51.058;13.826;2022-12-29T07:45:39;9.40;99.90
64620;DHT22;51029;51.058;13.826;2022-12-29T07:48:05;9.30;99.90
64620;DHT22;51029;51.058;13.826;2022-12-29T07:50:33;9.30;99.90
64620;DHT22;51029;51.058;13.826;2022-12-29T07:52:59;9.30;99.90
64620;DHT22;51029;51.058;13.826;2022-12-29T07:55:24;9.40;99.90
64620;DHT22;51029;51.058;13.826;2022-12-29T07:57:53;9.30;99.90
64620;DHT22;51029;51.058;13.826;2022-12-29T08:00:19;9.30;99.90
64620;DHT22;51029;51.058;13.826;2022-12-29T08:02:45;9.30;99.90
64620;DHT22;51029;51.058;13.826;2022-12-29T08:05:10;9.40;99.90
64620;DHT22;51029;51.058;13.826;2022-12-29T08:07:36;9.50;99.90
64620;DHT22;51029;51.058;13.826;2022-12-29T08:10:01;9.70;99.90
64620;DHT22;51029;51.058;13.826;2022-12-29T08:12:27;9.80;99.90
64620;DHT22;51029;51.058;13.826;2022-12-29T08:14:52;10.10;99.90
64620;DHT22;51029;51.058;13.826;2022-12-29T08:17:18;10.20;99.90
64620;DHT22;51029;51.058;13.826;2022-12-29T08:19:43;10.20;99.90
64620;DHT22;51029;51.058;13.826;2022-12-29T08:22:09;10.30;99.90
64620;DHT22;51029;51.058;13.826;2022-12-29T08:24:35;10.40;99.90
64620;DHT22;51029;51.058;13.826;2022-12-29T08:27:00;10.50;99.90
64620;DHT22;51029;51.058;13.826;2022-12-29T08:29:26;10.50;99.90
64620;DHT22;51029;51.058;13.826;2022-12-29T08:31:52;10.60;99.90
64620;DHT22;51029;51.058;13.826;2022-12-29T08:34:17;10.70;99.90
64620;DHT22;51029;51.058;13.826;2022-12-29T08:36:43;10.80;99.90
64620;DHT22;51029;51.058;13.826;2022-12-29T08:39:08;10.70;99.90
64620;DHT22;51029;51.058;13.826;2022-12-29T08:41:34;10.70;99.90
64620;DHT22;51029;51.058;13.826;2022-12-29T08:44:00;10.70;99.90
64620;DHT22;51029;51.058;13.826;2022-12-29T08:46:25;10.70;99.90
64620;DHT22;51029;51.058;13.826;2022-12-29T08:48:51;10.70;99.90
64620;DHT22;51029;51.058;13.826;2022-12-29T08:51:16;10.70;99.90
64620;DHT22;51029;51.058;13.826;2022-12-29T08:53:42;10.60;99.90
64620;DHT22;51029;51.058;13.826;2022-12-29T08:56:09;10.60;99.90
64620;DHT22;51029;51.058;13.826;2022-12-29T08:58:35;10.60;99.90
64620;DHT22;51029;51.058;13.826;2022-12-29T09:01:00;10.60;99.90
64620;DHT22;51029;51.058;13.826;2022-12-29T09:03:26;10.60;99.90
64620;DHT22;51029;51.058;13.826;2022-12-29T09:05:53;10.60;99.90
64620;DHT22;51029;51.058;13.826;2022-12-29T09:08:20;10.70;99.90
64620;DHT22;51029;51.058;13.826;2022-12-29T09:10:46;10.70;99.90
64620;DHT22;51029;51.058;13.826;2022-12-29T09:13:12;10.60;99.90
64620;DHT22;51029;51.058;13.826;2022-12-29T09:15:39;10.60;99.90
64620;DHT22;51029;51.058;13.826;2022-12-29T09:18:06;10.50;99.90
64620;DHT22;51029;51.058;13.826;2022-12-29T09:20:31;10.50;99.90
64620;DHT22;51029;51.058;13.826;2022-12-29T09:22:57;10.50;99.90
64620;DHT22;51029;51.058;13.826;2022-12-29T09:25:22;10.60;99.90
64620;DHT22;51029;51.058;13.826;2022-12-29T09:27:50;10.70;99.90
64620;DHT22;51029;51.058;13.826;2022-12-29T09:30:18;10.70;99.90
64620;DHT22;51029;51.058;13.826;2022-12-29T09:32:44;10.80;99.90
64620;DHT22;51029;51.058;13.826;2022-12-29T09:35:09;10.90;99.90
64620;DHT22;51029;51.058;13.826;2022-12-29T09:37:35;10.90;99.90
64620;DHT22;51029;51.058;13.826;2022-12-29T09:40:01;11.00;99.90
64620;DHT22;51029;51.058;13.826;2022-12-29T09:47:41;11.10;99.90
64620;DHT22;51029;51.058;13.826;2022-12-29T09:50:21;11.30;99.90
64620;DHT22;51029;51.058;13.826;2022-12-29T09:53:03;11.50;99.90
64620;DHT22;51029;51.058;13.826;2022-12-29T09:55:37;11.60;99.90
64620;DHT22;51029;51.058;13.826;2022-12-29T09:58:09;11.80;99.90
64620;DHT22;51029;51.058;13.826;2022-12-29T10:01:02;11.90;99.90
64620;DHT22;51029;51.058;13.826;2022-12-29T10:03:51;12.20;99.90
64620;DHT22;51029;51.058;13.826;2022-12-29T10:06:44;12.10;99.90
64620;DHT22;51029;51.058;13.826;2022-12-29T10:17:25;14.90;99.90
64620;DHT22;51029;51.058;13.826;2022-12-29T10:22:54;14.90;99.90
64620;DHT22;51029;51.058;13.826;2022-12-29T10:25:25;15.90;99.90
64620;DHT22;51029;51.058;13.826;2022-12-29T10:27:54;17.90;96.80
64620;DHT22;51029;51.058;13.826;2022-12-29T10:30:22;18.80;92.70
64620;DHT22;51029;51.058;13.826;2022-12-29T10:32:49;20.10;90.60
64620;DHT22;51029;51.058;13.826;2022-12-29T10:35:21;20.50;83.40
64620;DHT22;51029;51.058;13.826;2022-12-29T10:37:58;19.40;84.70
64620;DHT22;51029;51.058;13.826;2022-12-29T10:40:38;20.10;81.20
64620;DHT22;51029;51.058;13.826;2022-12-29T10:45:52;20.80;78.50
64620;DHT22;51029;51.058;13.826;2022-12-29T10:48:34;21.40;73.70
64620;DHT22;51029;51.058;13.826;2022-12-29T10:51:04;19.50;78.60
64620;DHT22;51029;51.058;13.826;2022-12-29T10:53:37;18.10;83.80
64620;DHT22;51029;51.058;13.826;2022-12-29T10:56:09;17.70;89.60
64620;DHT22;51029;51.058;13.826;2022-12-29T10:58:39;17.70;90.40
64620;DHT22;51029;51.058;13.826;2022-12-29T11:01:08;17.30;90.40
64620;DHT22;51029;51.058;13.826;2022-12-29T11:03:48;20.50;87.00
64620;DHT22;51029;51.058;13.826;2022-12-29T11:06:25;22.60;74.00
64620;DHT22;51029;51.058;13.826;2022-12-29T11:09:13;21.80;67.00
64620;DHT22;51029;51.058;13.826;2022-12-29T11:11:40;20.80;71.30
64620;DHT22;51029;51.058;13.826;2022-12-29T11:14:12;21.00;71.30
64620;DHT22;51029;51.058;13.826;2022-12-29T11:16:39;20.50;72.10
64620;DHT22;51029;51.058;13.826;2022-12-29T11:19:23;19.40;76.10
64620;DHT22;51029;51.058;13.826;2022-12-29T11:21:49;17.90;83.20
64620;DHT22;51029;51.058;13.826;2022-12-29T11:24:21;16.80;88.50
64620;DHT22;51029;51.058;13.826;2022-12-29T11:26:49;16.00;91.80
64620;DHT22;51029;51.058;13.826;2022-12-29T11:29:27;15.50;93.80
64620;DHT22;51029;51.058;13.826;2022-12-29T11:31:58;14.90;95.30
64620;DHT22;51029;51.058;13.826;2022-12-29T11:34:33;14.40;95.80
64620;DHT22;51029;51.058;13.826;2022-12-29T11:37:04;14.10;97.30
64620;DHT22;51029;51.058;13.826;2022-12-29T11:39:39;14.00;98.10
64620;DHT22;51029;51.058;13.826;2022-12-29T11:42:15;13.80;98.60
64620;DHT22;51029;51.058;13.826;2022-12-29T11:44:44;13.80;99.00
64620;DHT22;51029;51.058;13.826;2022-12-29T11:47:31;13.80;99.90
64620;DHT22;51029;51.058;13.826;2022-12-29T11:50:00;13.80;99.90
64620;DHT22;51029;51.058;13.826;2022-12-29T11:52:32;13.80;99.70
64620;DHT22;51029;51.058;13.826;2022-12-29T11:55:01;13.90;99.90
64620;DHT22;51029;51.058;13.826;2022-12-29T11:57:28;14.00;99.90
64620;DHT22;51029;51.058;13.826;2022-12-29T11:59:55;14.20;99.00
64620;DHT22;51029;51.058;13.826;2022-12-29T12:05:01;14.00;99.60
64620;DHT22;51029;51.058;13.826;2022-12-29T12:07:40;14.00;99.90
64620;DHT22;51029;51.058;13.826;2022-12-29T12:10:15;14.00;99.90
64620;DHT22;51029;51.058;13.826;2022-12-29T12:15:24;13.70;99.90
64620;DHT22;51029;51.058;13.826;2022-12-29T12:18:10;13.70;99.90
64620;DHT22;51029;51.058;13.826;2022-12-29T12:20:54;13.50;99.90
64620;DHT22;51029;51.058;13.826;2022-12-29T12:23:27;13.50;99.90
64620;DHT22;51029;51.058;13.826;2022-12-29T12:26:18;13.60;99.90
64620;DHT22;51029;51.058;13.826;2022-12-29T12:29:09;13.70;99.90
64620;DHT22;51029;51.058;13.826;2022-12-29T12:31:49;13.80;99.90
64620;DHT22;51029;51.058;13.826;2022-12-29T12:34:30;14.00;99.90
64620;DHT22;51029;51.058;13.826;2022-12-29T12:48:53;14.90;98.20
64620;DHT22;51029;51.058;13.826;2022-12-29T12:59:56;14.50;98.30
64620;DHT22;51029;51.058;13.826;2022-12-29T13:02:40;14.60;98.10
64620;DHT22;51029;51.058;13.826;2022-12-29T13:05:18;14.40;98.90
64620;DHT22;51029;51.058;13.826;2022-12-29T13:08:25;14.30;98.40
64620;DHT22;51029;51.058;13.826;2022-12-29T13:37:52;15.80;94.70
64620;DHT22;51029;51.058;13.826;2022-12-29T13:40:23;15.50;95.10
64620;DHT22;51029;51.058;13.826;2022-12-29T13:42:49;15.10;95.60
64620;DHT22;51029;51.058;13.826;2022-12-29T13:45:26;14.80;96.10
64620;DHT22;51029;51.058;13.826;2022-12-29T13:50:29;14.50;97.90
64620;DHT22;51029;51.058;13.826;2022-12-29T13:53:20;14.40;98.00
64620;DHT22;51029;51.058;13.826;2022-12-29T13:55:55;14.30;97.50
64620;DHT22;51029;51.058;13.826;2022-12-29T13:58:34;14.20;97.90
64620;DHT22;51029;51.058;13.826;2022-12-29T14:01:31;14.20;98.20
64620;DHT22;51029;51.058;13.826;2022-12-29T14:04:11;14.10;98.40
64620;DHT22;51029;51.058;13.826;2022-12-29T14:06:37;14.10;99.10
64620;DHT22;51029;51.058;13.826;2022-12-29T14:09:26;14.00;98.60
64620;DHT22;51029;51.058;13.826;2022-12-29T14:11:52;13.90;99.80
64620;DHT22;51029;51.058;13.826;2022-12-29T14:14:28;13.80;99.40
64620;DHT22;51029;51.058;13.826;2022-12-29T14:17:09;13.80;99.90
64620;DHT22;51029;51.058;13.826;2022-12-29T14:19:41;13.70;99.90
64620;DHT22;51029;51.058;13.826;2022-12-29T14:22:07;13.60;99.90
64620;DHT22;51029;51.058;13.826;2022-12-29T14:32:35;13.40;99.90
64620;DHT22;51029;51.058;13.826;2022-12-29T14:38:21;13.40;99.90
64620;DHT22;51029;51.058;13.826;2022-12-29T14:40:47;13.40;99.90
64620;DHT22;51029;51.058;13.826;2022-12-29T14:43:25;13.30;99.90
64620;DHT22;51029;51.058;13.826;2022-12-29T14:45:59;13.20;99.90
64620;DHT22;51029;51.058;13.826;2022-12-29T14:48:33;13.20;99.90
64620;DHT22;51029;51.058;13.826;2022-12-29T14:50:59;13.20;99.90
64620;DHT22;51029;51.058;13.826;2022-12-29T14:53:49;13.10;99.90
64620;DHT22;51029;51.058;13.826;2022-12-29T14:56:17;13.10;99.90
64620;DHT22;51029;51.058;13.826;2022-12-29T14:58:54;13.10;99.90
64620;DHT22;51029;51.058;13.826;2022-12-29T15:01:36;13.00;99.90
64620;DHT22;51029;51.058;13.826;2022-12-29T15:04:13;13.00;99.90
64620;DHT22;51029;51.058;13.826;2022-12-29T15:06:40;12.90;99.90
64620;DHT22;51029;51.058;13.826;2022-12-29T15:11:52;12.70;99.90
64620;DHT22;51029;51.058;13.826;2022-12-29T15:14:39;12.60;99.90
64620;DHT22;51029;51.058;13.826;2022-12-29T15:17:30;12.40;99.90
64620;DHT22;51029;51.058;13.826;2022-12-29T15:19:58;12.50;99.90
64620;DHT22;51029;51.058;13.826;2022-12-29T15:22:24;12.50;99.90
64620;DHT22;51029;51.058;13.826;2022-12-29T15:24:52;12.50;99.90
64620;DHT22;51029;51.058;13.826;2022-12-29T15:27:23;12.50;99.90
64620;DHT22;51029;51.058;13.826;2022-12-29T15:30:00;12.40;99.90
64620;DHT22;51029;51.058;13.826;2022-12-29T15:32:39;12.30;99.90
64620;DHT22;51029;51.058;13.826;2022-12-29T15:35:23;12.40;99.90
64620;DHT22;51029;51.058;13.826;2022-12-29T15:37:48;12.40;99.90
64620;DHT22;51029;51.058;13.826;2022-12-29T15:40:40;12.30;99.90
64620;DHT22;51029;51.058;13.826;2022-12-29T15:43:42;12.30;99.90
64620;DHT22;51029;51.058;13.826;2022-12-29T15:46:11;12.30;99.90
64620;DHT22;51029;51.058;13.826;2022-12-29T15:48:38;12.30;99.90
64620;DHT22;51029;51.058;13.826;2022-12-29T15:51:20;12.30;99.90
64620;DHT22;51029;51.058;13.826;2022-12-29T15:53:50;12.40;99.90
64620;DHT22;51029;51.058;13.826;2022-12-29T15:56:16;12.50;99.90
64620;DHT22;51029;51.058;13.826;2022-12-29T15:58:44;12.50;99.90
64620;DHT22;51029;51.058;13.826;2022-12-29T16:01:26;12.50;99.90
64620;DHT22;51029;51.058;13.826;2022-12-29T16:03:52;12.50;99.90
64620;DHT22;51029;51.058;13.826;2022-12-29T16:06:33;12.40;99.90
64620;DHT22;51029;51.058;13.826;2022-12-29T16:09:06;12.40;99.90
64620;DHT22;51029;51.058;13.826;2022-12-29T16:11:40;12.30;99.90
64620;DHT22;51029;51.058;13.826;2022-12-29T16:14:14;12.30;99.90
64620;DHT22;51029;51.058;13.826;2022-12-29T16:16:42;12.20;99.90
64620;DHT22;51029;51.058;13.826;2022-12-29T16:19:21;12.10;99.90
64620;DHT22;51029;51.058;13.826;2022-12-29T16:21:49;12.10;99.90
64620;DHT22;51029;51.058;13.826;2022-12-29T16:24:18;12.00;99.90
64620;DHT22;51029;51.058;13.826;2022-12-29T16:27:02;12.00;99.90
64620;DHT22;51029;51.058;13.826;2022-12-29T16:29:31;12.00;99.90
64620;DHT22;51029;51.058;13.826;2022-12-29T16:31:58;12.00;99.90
64620;DHT22;51029;51.058;13.826;2022-12-29T16:34:33;11.90;99.90
64620;DHT22;51029;51.058;13.826;2022-12-29T16:37:02;11.90;99.90
64620;DHT22;51029;51.058;13.826;2022-12-29T16:39:38;11.80;99.90
64620;DHT22;51029;51.058;13.826;2022-12-29T16:45:54;11.80;99.90
64620;DHT22;51029;51.058;13.826;2022-12-29T16:48:26;11.70;99.90
64620;DHT22;51029;51.058;13.826;2022-12-29T16:53:53;11.60;99.90
64620;DHT22;51029;51.058;13.826;2022-12-29T16:56:25;11.50;99.90
64620;DHT22;51029;51.058;13.826;2022-12-29T16:59:00;11.40;99.90
64620;DHT22;51029;51.058;13.826;2022-12-29T17:01:26;11.50;99.90
64620;DHT22;51029;51.058;13.826;2022-12-29T17:03:56;11.60;99.90
64620;DHT22;51029;51.058;13.826;2022-12-29T17:06:22;11.60;99.90
64620;DHT22;51029;51.058;13.826;2022-12-29T17:08:49;11.70;99.90
64620;DHT22;51029;51.058;13.826;2022-12-29T17:11:41;11.70;99.90
64620;DHT22;51029;51.058;13.826;2022-12-29T17:14:56;11.70;99.90
64620;DHT22;51029;51.058;13.826;2022-12-29T17:17:43;11.70;99.90
64620;DHT22;51029;51.058;13.826;2022-12-29T17:20:19;11.60;99.90
64620;DHT22;51029;51.058;13.826;2022-12-29T17:22:46;11.40;99.90
64620;DHT22;51029;51.058;13.826;2022-12-29T17:25:13;11.40;99.90
64620;DHT22;51029;51.058;13.826;2022-12-29T17:27:44;11.30;99.90
64620;DHT22;51029;51.058;13.826;2022-12-29T17:30:14;11.30;99.90
64620;DHT22;51029;51.058;13.826;2022-12-29T17:32:42;11.20;99.90
64620;DHT22;51029;51.058;13.826;2022-12-29T17:35:16;11.20;99.90
64620;DHT22;51029;51.058;13.826;2022-12-29T17:37:43;11.10;99.90
64620;DHT22;51029;51.058;13.826;2022-12-29T17:40:15;11.10;99.90
64620;DHT22;51029;51.058;13.826;2022-12-29T17:42:48;11.10;99.90
64620;DHT22;51029;51.058;13.826;2022-12-29T17:45:16;11.10;99.90
64620;DHT22;51029;51.058;13.826;2022-12-29T17:47:42;11.00;99.90
64620;DHT22;51029;51.058;13.826;2022-12-29T17:50:16;11.00;99.90
64620;DHT22;51029;51.058;13.826;2022-12-29T17:52:43;10.90;99.90